Time;durP1;ratioP1;P1;durP2;ratioP2;P2;SDS_P1;SDS_P2;PMS_P1;PMS_P2;Temp;Humidity;BMP_temperature;BMP_pressure;BME280_temperature;BME280_humidity;BME280_pressure;Samples;Min_cycle;Max_cycle;Signal;HPM_P1;HPM_P2
2023/04/05 06:21:25;;;;;;;10.13;6.60;;;2.40;99.90;;;;;;4983528;28;20085;-86
2023/04/05 06:23:50;;;;;;;10.57;6.20;;;2.50;99.90;;;;;;4957158;28;20042;-84
2023/04/05 06:26:19;;;;;;;13.18;6.15;;;2.10;99.90;;;;;;4948930;28;20026;-87
2023/04/05 06:28:48;;;;;;;12.18;6.72;;;3.60;99.90;;;;;;4972319;28;20035;-85
2023/04/05 06:46:40;;;;;;;21.67;7.75;;;3.40;99.90;;;;;;5022982;28;20045;-80
2023/04/05 06:49:08;;;;;;;16.00;6.90;;;3.60;99.90;;;;;;5031157;28;20091;-82
2023/04/05 06:51:38;;;;;;;14.05;6.22;;;3.80;99.90;;;;;;5023582;28;20056;-82
2023/04/05 06:54:07;;;;;;;9.15;5.43;;;3.90;99.90;;;;;;5017124;28;20065;-83
2023/04/05 06:56:32;;;;;;;12.23;5.70;;;4.10;99.90;;;;;;5015525;28;20053;-79
2023/04/05 06:59:01;;;;;;;13.32;5.95;;;4.20;99.90;;;;;;5014514;28;20029;-79
2023/04/05 07:01:27;;;;;;;10.18;5.45;;;4.20;99.90;;;;;;5015346;28;20027;-82
2023/04/05 07:03:53;;;;;;;11.57;5.72;;;4.30;99.90;;;;;;5034554;28;20042;-84
2023/04/05 07:06:18;;;;;;;9.30;5.20;;;4.50;99.90;;;;;;5020504;28;20133;-83
2023/04/05 07:08:44;;;;;;;11.23;5.78;;;5.20;99.90;;;;;;5025139;28;20034;-83
2023/04/05 07:11:12;;;;;;;8.77;5.22;;;4.70;99.90;;;;;;5025383;28;20048;-80
2023/04/05 07:13:38;;;;;;;8.00;5.10;;;5.00;99.90;;;;;;5025703;28;20027;-82
2023/04/05 07:16:03;;;;;;;9.25;5.10;;;5.10;99.90;;;;;;5028885;28;20076;-82
2023/04/05 07:18:29;;;;;;;10.32;5.07;;;5.10;99.90;;;;;;5025824;28;20137;-82
2023/04/05 07:21:00;;;;;;;11.10;5.15;;;5.20;99.90;;;;;;5027993;28;20030;-82
2023/04/05 07:23:29;;;;;;;;;;;5.30;99.90;;;;;;5020428;28;20609;-83
2023/04/05 07:26:03;;;;;;;10.30;3.90;;;5.60;99.90;;;;;;5011762;28;19921;-83
2023/04/05 07:28:29;;;;;;;6.15;4.10;;;5.70;99.90;;;;;;5016985;28;20038;-83
2023/04/05 07:30:55;;;;;;;9.18;3.92;;;6.20;99.90;;;;;;5014429;28;20113;-85
2023/04/05 07:33:20;;;;;;;6.63;4.05;;;6.70;99.90;;;;;;5021677;28;20053;-86
2023/04/05 07:35:54;;;;;;;7.95;4.18;;;6.00;99.90;;;;;;5037333;28;20013;-84
2023/04/05 07:38:20;;;;;;;7.80;3.83;;;6.70;99.90;;;;;;5023348;28;20041;-88
2023/04/05 07:40:48;;;;;;;7.57;3.70;;;7.30;98.20;;;;;;5021904;28;20022;-82
2023/04/05 07:43:14;;;;;;;7.97;4.53;;;6.50;97.90;;;;;;5015346;28;20077;-87
2023/04/05 07:45:40;;;;;;;13.95;4.80;;;6.70;97.40;;;;;;5016861;28;20041;-83
2023/04/05 07:48:05;;;;;;;7.80;4.28;;;7.50;98.10;;;;;;5029042;28;20048;-85
2023/04/05 07:50:33;;;;;;;5.80;3.67;;;6.80;97.20;;;;;;5031133;28;20081;-84
2023/04/05 07:52:59;;;;;;;7.05;3.67;;;6.90;96.90;;;;;;5025174;28;20018;-83
2023/04/05 07:55:26;;;;;;;5.95;3.53;;;7.00;96.10;;;;;;5015751;28;20038;-84
2023/04/05 07:57:52;;;;;;;6.43;3.70;;;6.90;96.00;;;;;;5021007;28;20090;-86
2023/04/05 08:00:18;;;;;;;8.55;3.88;;;7.10;96.10;;;;;;5027830;28;20024;-84
2023/04/05 08:02:44;;;;;;;7.45;3.50;;;7.20;95.10;;;;;;5021323;28;20068;-85
2023/04/05 08:05:10;;;;;;;6.15;3.63;;;7.40;93.60;;;;;;5026623;28;20022;-91
2023/04/05 08:07:35;;;;;;;6.53;3.83;;;7.30;94.00;;;;;;5018079;28;20107;-80
2023/04/05 08:10:01;;;;;;;7.13;3.70;;;8.10;94.00;;;;;;5016408;28;20098;-87
2023/04/05 08:12:28;;;;;;;5.22;3.78;;;7.70;92.60;;;;;;5018348;28;20046;-82
2023/04/05 08:14:54;;;;;;;8.77;3.50;;;7.80;92.80;;;;;;5019234;28;20733;-83
2023/04/05 08:17:27;;;;;;;7.80;3.80;;;7.90;91.90;;;;;;5025456;28;20030;-89
2023/04/05 08:19:53;;;;;;;7.28;3.78;;;8.10;91.80;;;;;;5023213;28;20025;-82
2023/04/05 08:22:19;;;;;;;5.50;3.25;;;8.10;91.30;;;;;;5016155;28;20034;-83
2023/04/05 08:24:45;;;;;;;8.20;3.97;;;8.10;91.00;;;;;;5027074;28;20034;-85
2023/04/05 08:27:13;;;;;;;6.05;3.47;;;8.10;91.10;;;;;;5027671;28;20041;-82
2023/04/05 08:29:39;;;;;;;7.32;3.55;;;8.20;90.70;;;;;;5022645;28;20033;-81
2023/04/05 08:32:05;;;;;;;8.88;3.63;;;8.30;90.30;;;;;;5035967;23;20551;-86
2023/04/05 08:34:33;;;;;;;9.85;3.85;;;8.20;90.40;;;;;;5015659;28;20589;-84
2023/04/05 08:36:59;;;;;;;7.03;3.42;;;8.90;90.50;;;;;;5027485;28;20029;-81
2023/04/05 08:39:25;;;;;;;6.68;3.35;;;8.30;89.90;;;;;;5025733;28;20466;-81
2023/04/05 08:42:02;;;;;;;5.57;3.38;;;8.40;88.40;;;;;;5017641;28;20030;-82
2023/04/05 08:44:35;;;;;;;5.45;3.40;;;8.40;87.80;;;;;;5015321;28;20041;-82
2023/04/05 08:47:04;;;;;;;9.18;3.30;;;9.00;87.40;;;;;;5010417;28;20483;-81
2023/04/05 08:49:29;;;;;;;6.30;3.70;;;9.00;86.90;;;;;;5021096;28;20101;-83
2023/04/05 08:51:57;;;;;;;7.80;3.40;;;8.80;85.80;;;;;;5001777;28;20046;-82
2023/04/05 08:54:24;;;;;;;6.43;3.35;;;8.80;85.60;;;;;;5006964;28;20025;-84
2023/04/05 08:56:53;;;;;;;7.25;3.90;;;9.30;85.20;;;;;;5022422;28;20018;-84
2023/04/05 08:59:19;;;;;;;6.95;3.38;;;9.80;85.20;;;;;;5003991;28;20045;-80
2023/04/05 09:01:56;;;;;;;6.03;3.33;;;9.30;84.20;;;;;;4999009;28;20026;-81
2023/04/05 09:04:23;;;;;;;6.75;3.22;;;10.00;83.90;;;;;;5014070;28;20053;-83
2023/04/05 09:06:51;;;;;;;6.35;3.60;;;9.70;83.20;;;;;;5013342;28;20014;-83
2023/04/05 09:09:21;;;;;;;7.80;3.80;;;9.50;82.50;;;;;;5027652;28;20042;-82
2023/04/05 09:11:50;;;;;;;5.72;3.08;;;9.20;82.30;;;;;;5014670;28;20034;-84
2023/04/05 09:14:16;;;;;;;6.07;2.90;;;10.00;81.10;;;;;;5025616;28;20037;-83
2023/04/05 09:16:42;;;;;;;7.22;3.42;;;9.60;80.20;;;;;;5014389;28;20038;-81
2023/04/05 09:19:10;;;;;;;5.63;3.17;;;9.90;80.00;;;;;;5035401;28;20077;-85
2023/04/05 09:22:01;;;;;;;6.82;3.53;;;9.30;79.50;;;;;;5022024;28;20037;-87
2023/04/05 09:24:35;;;;;;;5.45;3.03;;;9.70;79.30;;;;;;5034496;28;20106;-82
2023/04/05 09:27:23;;;;;;;5.70;3.35;;;9.10;77.90;;;;;;5034879;28;20050;-87
2023/04/05 09:29:49;;;;;;;5.43;3.22;;;9.50;79.00;;;;;;5011972;28;20109;-86
2023/04/05 09:32:23;;;;;;;6.35;3.70;;;9.70;78.80;;;;;;5023433;28;20859;-84
2023/04/05 09:34:59;;;;;;;6.65;3.50;;;9.80;77.70;;;;;;5020204;28;20045;-88
2023/04/05 09:37:25;;;;;;;9.35;3.58;;;9.10;78.40;;;;;;5015592;28;20254;-88
2023/04/05 09:40:02;;;;;;;5.70;3.30;;;9.30;79.30;;;;;;5036335;28;20026;-81
2023/04/05 09:42:33;;;;;;;5.50;3.70;;;9.60;77.50;;;;;;5009367;28;20076;-82
2023/04/05 09:45:01;;;;;;;5.82;3.15;;;9.70;77.60;;;;;;5027464;28;20045;-82
2023/04/05 09:47:31;;;;;;;6.13;3.45;;;10.50;77.10;;;;;;5011048;28;20022;-81
2023/04/05 09:49:57;;;;;;;6.78;3.53;;;10.10;76.20;;;;;;5017760;28;20034;-80
2023/04/05 09:52:31;;;;;;;5.82;3.45;;;10.70;76.70;;;;;;5011077;28;20026;-82
2023/04/05 09:54:59;;;;;;;7.90;3.10;;;10.50;74.10;;;;;;5021128;28;20026;-83
2023/04/05 09:57:26;;;;;;;6.22;3.10;;;10.20;72.20;;;;;;5010783;28;20056;-81
2023/04/05 09:59:53;;;;;;;6.10;3.53;;;11.10;74.10;;;;;;5009114;28;20032;-83
2023/04/05 10:02:20;;;;;;;5.75;3.30;;;10.70;74.70;;;;;;5016690;28;20041;-81
2023/04/05 10:04:47;;;;;;;5.82;3.88;;;10.20;75.00;;;;;;5001661;28;20038;-82
2023/04/05 10:07:14;;;;;;;6.03;3.42;;;10.60;74.10;;;;;;5008557;28;20030;-82
2023/04/05 10:09:42;;;;;;;5.60;3.50;;;10.50;74.50;;;;;;5008950;28;20086;-87
2023/04/05 10:12:09;;;;;;;6.15;3.40;;;11.40;74.60;;;;;;5024909;28;20081;-91
2023/04/05 10:14:36;;;;;;;6.15;3.58;;;10.70;73.40;;;;;;5017511;28;20038;-87
2023/04/05 10:17:26;;;;;;;7.35;3.28;;;11.30;72.70;;;;;;5016918;28;20023;-85
2023/04/05 10:19:56;;;;;;;4.35;3.20;;;10.80;72.10;;;;;;5016685;28;20022;-86
2023/04/05 10:22:26;;;;;;;6.43;3.40;;;10.90;71.50;;;;;;5033143;28;20018;-83
2023/04/05 10:24:56;;;;;;;5.38;3.65;;;11.40;72.50;;;;;;5031332;28;20041;-82
2023/04/05 10:27:38;;;;;;;5.82;3.60;;;11.40;72.70;;;;;;5029289;28;20037;-82
2023/04/05 10:30:07;;;;;;;7.07;3.63;;;11.10;72.10;;;;;;5010871;28;20058;-83
2023/04/05 10:33:12;;;;;;;7.68;4.00;;;11.10;71.00;;;;;;5018665;28;20034;-85
2023/04/05 10:36:08;;;;;;;5.57;3.60;;;11.60;71.40;;;;;;5018511;28;20025;-83
2023/04/05 10:38:56;;;;;;;11.32;6.07;;;11.40;70.10;;;;;;5018042;28;20057;-81
2023/04/05 10:41:22;;;;;;;11.25;3.97;;;11.30;69.60;;;;;;5035284;28;20026;-83
2023/04/05 10:43:50;;;;;;;6.22;3.83;;;12.00;70.50;;;;;;5017747;28;20030;-81
2023/04/05 10:46:20;;;;;;;6.88;3.60;;;11.70;69.90;;;;;;5007090;28;20030;-84
2023/04/05 10:49:15;;;;;;;5.40;3.40;;;11.80;69.50;;;;;;5011553;28;20022;-81
2023/04/05 10:51:42;;;;;;;5.97;3.85;;;11.60;68.50;;;;;;5020629;28;20033;-80
2023/04/05 10:54:12;;;;;;;5.22;3.20;;;12.30;68.60;;;;;;5009733;28;20033;-81
2023/04/05 10:56:38;;;;;;;7.65;4.30;;;11.70;67.80;;;;;;5024587;28;20030;-82
2023/04/05 10:59:05;;;;;;;6.53;3.58;;;12.20;67.30;;;;;;5007030;28;20026;-83
2023/04/05 11:01:31;;;;;;;6.38;3.47;;;12.10;66.60;;;;;;5026769;28;20034;-82
2023/04/05 11:04:11;;;;;;;6.97;4.40;;;11.90;66.70;;;;;;5012118;28;20018;-81
2023/04/05 11:06:37;;;;;;;5.73;3.70;;;12.00;66.70;;;;;;5010240;28;20034;-81
2023/04/05 11:09:20;;;;;;;5.88;3.50;;;12.00;66.60;;;;;;5014330;28;20474;-80
2023/04/05 11:11:51;;;;;;;6.32;3.90;;;12.00;66.70;;;;;;5008130;28;20560;-83
2023/04/05 11:14:34;;;;;;;6.53;3.55;;;12.40;66.00;;;;;;5007476;28;20026;-82
2023/04/05 11:17:01;;;;;;;6.40;3.63;;;12.20;64.90;;;;;;5009988;28;20022;-81
2023/04/05 11:19:42;;;;;;;8.00;4.20;;;12.20;64.80;;;;;;5027249;28;20034;-80
2023/04/05 11:22:11;;;;;;;6.13;3.92;;;12.60;63.40;;;;;;5025744;28;20029;-81
2023/04/05 11:24:53;;;;;;;8.70;4.05;;;12.90;64.10;;;;;;5004923;28;20029;-81
2023/04/05 11:27:36;;;;;;;6.20;4.20;;;12.60;64.20;;;;;;5009489;28;20033;-81
2023/04/05 11:30:04;;;;;;;9.70;4.18;;;12.10;63.70;;;;;;5009563;28;20060;-81
2023/04/05 11:32:41;;;;;;;7.88;4.53;;;12.40;63.60;;;;;;5005017;28;20030;-81
2023/04/05 11:35:16;;;;;;;8.80;4.00;;;12.50;63.70;;;;;;4994041;28;20077;-81
2023/04/05 11:37:55;;;;;;;5.28;3.60;;;12.60;63.90;;;;;;5016381;28;20030;-80
2023/04/05 11:40:41;;;;;;;5.38;3.50;;;12.80;62.60;;;;;;5016768;28;20018;-80
2023/04/05 11:43:10;;;;;;;6.13;3.63;;;12.70;62.80;;;;;;4994998;28;20112;-83
2023/04/05 11:45:37;;;;;;;5.00;3.70;;;12.80;62.00;;;;;;5006047;28;20026;-80
2023/04/05 11:48:16;;;;;;;6.63;4.20;;;13.40;62.00;;;;;;5011262;28;20022;-79
2023/04/05 11:50:44;;;;;;;6.15;3.90;;;12.90;61.30;;;;;;5006902;28;20106;-80
2023/04/05 11:53:12;;;;;;;6.28;3.55;;;12.70;61.10;;;;;;5003958;28;20026;-79
2023/04/05 11:55:39;;;;;;;6.55;3.33;;;12.70;60.30;;;;;;4992732;28;20018;-79
2023/04/05 12:01:06;;;;;;;5.90;3.83;;;12.40;61.20;;;;;;5025624;28;20109;-82
2023/04/05 12:03:33;;;;;;;5.88;3.90;;;12.40;60.90;;;;;;5020452;28;20029;-81
2023/04/05 12:06:04;;;;;;;6.25;3.80;;;12.60;61.30;;;;;;5027822;28;20042;-86
2023/04/05 12:08:55;;;;;;;6.90;3.85;;;12.20;61.70;;;;;;5022193;28;20030;-83
2023/04/05 12:11:27;;;;;;;;;;;12.70;61.20;;;;;;5024191;28;20950;-82
2023/04/05 12:14:01;;;;;;;7.15;3.80;;;11.40;60.70;;;;;;5018340;28;19937;-82
2023/04/05 12:16:27;;;;;;;8.38;3.90;;;12.20;62.00;;;;;;5020620;28;20026;-82
2023/04/05 12:19:04;;;;;;;6.28;3.40;;;12.70;61.20;;;;;;5014771;28;20018;-82
2023/04/05 12:21:31;;;;;;;7.28;4.22;;;12.70;61.10;;;;;;5032187;28;20495;-82
2023/04/05 12:24:04;;;;;;;7.15;3.70;;;12.80;61.00;;;;;;5025190;28;20022;-84
2023/04/05 12:26:33;;;;;;;6.68;3.38;;;13.00;60.50;;;;;;5019170;28;20038;-82
2023/04/05 12:29:03;;;;;;;8.40;3.90;;;13.40;59.20;;;;;;5023154;28;20081;-82
2023/04/05 12:31:40;;;;;;;5.75;3.50;;;13.40;58.90;;;;;;5035356;28;20648;-81
2023/04/05 12:34:06;;;;;;;4.65;3.28;;;12.70;58.50;;;;;;5017740;28;20030;-85
2023/04/05 12:36:32;;;;;;;5.78;3.60;;;12.70;59.40;;;;;;5022454;28;20029;-83
2023/04/05 12:38:59;;;;;;;6.35;4.20;;;12.80;59.50;;;;;;5025461;28;20034;-85
2023/04/05 12:41:34;;;;;;;5.07;3.45;;;13.10;59.10;;;;;;5026534;28;20026;-82
2023/04/05 12:44:13;;;;;;;7.38;3.97;;;13.00;58.40;;;;;;5018160;28;20026;-85
2023/04/05 12:46:44;;;;;;;6.38;3.75;;;13.00;58.30;;;;;;5019961;28;20026;-87
2023/04/05 12:49:11;;;;;;;6.70;3.70;;;13.50;57.80;;;;;;5020832;28;20034;-83
2023/04/05 12:51:42;;;;;;;5.15;3.70;;;13.50;57.60;;;;;;5026773;28;20030;-82
2023/04/05 12:54:21;;;;;;;6.25;3.80;;;13.20;56.90;;;;;;5021604;28;20033;-83
2023/04/05 12:56:53;;;;;;;7.60;3.65;;;13.10;57.20;;;;;;5020653;28;20068;-84
2023/04/05 12:59:22;;;;;;;5.05;3.25;;;13.20;58.20;;;;;;5028293;28;20030;-82
2023/04/05 13:01:51;;;;;;;4.95;3.60;;;13.20;57.10;;;;;;5019660;28;20098;-83
2023/04/05 13:04:17;;;;;;;8.40;3.83;;;13.30;57.30;;;;;;5019385;28;21484;-81
2023/04/05 13:06:45;;;;;;;7.78;3.70;;;13.60;56.50;;;;;;5017702;28;20056;-81
2023/04/05 13:09:11;;;;;;;5.90;3.60;;;13.50;57.30;;;;;;5023069;28;20038;-82
2023/04/05 13:11:37;;;;;;;7.30;4.15;;;13.20;56.70;;;;;;5019062;28;20072;-81
2023/04/05 13:14:03;;;;;;;5.25;3.58;;;13.20;56.30;;;;;;5002039;28;20651;-81
2023/04/05 13:16:28;;;;;;;5.40;3.35;;;13.20;57.00;;;;;;5019306;28;20061;-81
2023/04/05 13:18:54;;;;;;;6.70;3.75;;;13.30;57.10;;;;;;5012752;28;20089;-81
2023/04/05 13:21:20;;;;;;;6.85;3.65;;;13.50;56.90;;;;;;5011127;28;20428;-85
2023/04/05 13:23:46;;;;;;;5.13;3.45;;;13.30;57.00;;;;;;5008598;28;20056;-80
2023/04/05 13:26:11;;;;;;;5.05;3.60;;;13.70;57.00;;;;;;5017881;28;20038;-79
2023/04/05 13:28:37;;;;;;;4.80;3.40;;;13.80;56.60;;;;;;5009817;28;20105;-82
2023/04/05 13:31:05;;;;;;;7.32;4.03;;;13.90;56.20;;;;;;4999946;28;20033;-81
2023/04/05 13:33:30;;;;;;;5.60;3.45;;;14.00;56.60;;;;;;5008840;28;20068;-79
2023/04/05 13:35:56;;;;;;;5.22;3.10;;;14.00;56.70;;;;;;5012656;28;20030;-82
2023/04/05 13:38:22;;;;;;;7.68;3.83;;;13.90;56.30;;;;;;4998794;28;20023;-80
2023/04/05 13:40:48;;;;;;;5.82;3.38;;;13.90;55.80;;;;;;5012913;28;20061;-80
2023/04/05 13:43:13;;;;;;;4.53;3.03;;;13.60;55.70;;;;;;5039098;28;20053;-82
2023/04/05 13:45:40;;;;;;;4.95;3.30;;;13.80;56.50;;;;;;5020492;28;20053;-85
2023/04/05 13:48:05;;;;;;;6.15;3.30;;;13.60;56.30;;;;;;5010535;28;20048;-81
2023/04/05 13:50:31;;;;;;;5.13;3.13;;;13.50;56.50;;;;;;5012309;28;20113;-81
2023/04/05 13:52:57;;;;;;;6.28;3.33;;;13.60;56.60;;;;;;5009623;28;20492;-78
2023/04/05 13:55:23;;;;;;;4.97;3.28;;;14.60;56.70;;;;;;5009004;28;20034;-79
2023/04/05 13:57:48;;;;;;;4.57;2.92;;;13.80;55.60;;;;;;5006206;28;20037;-81
2023/04/05 14:00:14;;;;;;;11.70;4.60;;;14.20;56.20;;;;;;5001318;28;20080;-82
2023/04/05 14:02:41;;;;;;;7.63;3.70;;;14.00;56.10;;;;;;4999973;28;20050;-82
2023/04/05 14:05:07;;;;;;;5.80;3.40;;;14.10;56.10;;;;;;5005813;28;20029;-81
2023/04/05 14:07:34;;;;;;;5.75;3.20;;;13.90;55.60;;;;;;5010976;28;20026;-87
2023/04/05 14:09:59;;;;;;;6.45;3.47;;;13.80;55.30;;;;;;5004991;28;20029;-83
2023/04/05 14:12:25;;;;;;;6.97;4.03;;;14.00;56.00;;;;;;5002103;28;20030;-83
2023/04/05 14:14:51;;;;;;;9.98;4.82;;;13.80;55.90;;;;;;5010052;28;20104;-83
2023/04/05 14:17:17;;;;;;;5.63;3.67;;;13.80;56.30;;;;;;5010573;28;20036;-80
2023/04/05 14:19:42;;;;;;;5.03;3.25;;;13.90;56.00;;;;;;5006113;28;21425;-82
2023/04/05 14:22:08;;;;;;;5.78;3.28;;;14.10;55.70;;;;;;5004831;28;20084;-83
2023/04/05 14:24:34;;;;;;;5.50;3.08;;;14.00;55.70;;;;;;5014855;28;20396;-84
2023/04/05 14:27:00;;;;;;;6.10;3.22;;;14.20;56.00;;;;;;5007531;28;20388;-82
2023/04/05 14:29:26;;;;;;;5.70;3.42;;;14.20;55.30;;;;;;5010486;28;20033;-84
2023/04/05 14:31:54;;;;;;;9.40;3.78;;;14.20;55.30;;;;;;5011092;28;20037;-80
2023/04/05 14:34:20;;;;;;;11.25;5.32;;;14.10;55.70;;;;;;5011949;28;20018;-84
2023/04/05 14:36:45;;;;;;;9.65;4.32;;;14.00;56.00;;;;;;5013535;28;20033;-82
2023/04/05 14:39:11;;;;;;;7.85;3.70;;;14.10;56.10;;;;;;5009061;28;20035;-80
2023/04/05 14:41:37;;;;;;;6.97;3.97;;;14.30;55.90;;;;;;5023941;28;20076;-85
2023/04/05 14:44:03;;;;;;;13.63;3.90;;;14.20;55.30;;;;;;5007360;28;20025;-81
2023/04/05 14:46:28;;;;;;;5.72;3.58;;;14.00;55.10;;;;;;5002871;28;20471;-84
2023/04/05 14:48:54;;;;;;;7.10;3.10;;;14.00;55.50;;;;;;5005865;28;20130;-81
2023/04/05 14:51:20;;;;;;;6.55;3.75;;;14.10;55.60;;;;;;5012679;28;20050;-84
2023/04/05 14:53:46;;;;;;;10.88;3.45;;;14.10;56.30;;;;;;5012005;28;20034;-82
2023/04/05 14:56:11;;;;;;;9.27;4.55;;;14.20;56.00;;;;;;5013911;28;20188;-87
2023/04/05 14:58:37;;;;;;;4.40;3.28;;;14.20;56.40;;;;;;5016648;28;20093;-84
2023/04/05 15:01:03;;;;;;;7.07;4.20;;;14.20;56.00;;;;;;5009491;28;20094;-83
2023/04/05 15:03:30;;;;;;;6.55;3.92;;;14.30;55.70;;;;;;5014216;28;20038;-83
2023/04/05 15:05:55;;;;;;;4.68;3.03;;;14.30;55.70;;;;;;5008579;28;20026;-83
2023/04/05 15:08:21;;;;;;;6.55;3.20;;;14.10;56.00;;;;;;5010720;28;20061;-81
2023/04/05 15:10:47;;;;;;;8.00;3.70;;;14.00;56.30;;;;;;5011072;28;20018;-88
2023/04/05 15:13:13;;;;;;;5.53;3.33;;;14.00;56.80;;;;;;5009645;28;20026;-84
2023/04/05 15:15:38;;;;;;;4.47;3.13;;;14.00;56.50;;;;;;5012167;28;20116;-82
2023/04/05 15:18:06;;;;;;;5.55;3.20;;;14.10;56.40;;;;;;5011565;28;20092;-87
2023/04/05 15:20:35;;;;;;;5.07;3.30;;;14.00;56.40;;;;;;5013210;28;20023;-88
2023/04/05 15:23:01;;;;;;;4.97;2.88;;;14.00;56.40;;;;;;5018816;28;20049;-85
2023/04/05 15:25:26;;;;;;;6.18;3.08;;;14.00;55.50;;;;;;5012069;28;20026;-86
2023/04/05 15:27:53;;;;;;;5.65;3.50;;;13.90;55.30;;;;;;5007011;28;20022;-86
2023/04/05 15:30:20;;;;;;;5.68;3.38;;;13.90;56.20;;;;;;5015760;28;20026;-83
2023/04/05 15:32:45;;;;;;;6.85;3.63;;;13.90;55.90;;;;;;5012393;28;20018;-84
2023/04/05 15:35:11;;;;;;;5.15;3.17;;;13.80;55.80;;;;;;5018527;28;20044;-86
2023/04/05 15:37:38;;;;;;;6.88;3.72;;;13.70;56.30;;;;;;5021319;28;20060;-89
2023/04/05 15:40:05;;;;;;;5.28;3.42;;;13.80;56.40;;;;;;5025763;28;20025;-89
2023/04/05 15:42:32;;;;;;;7.03;3.60;;;13.90;55.80;;;;;;5016405;28;20038;-87
2023/04/05 15:44:58;;;;;;;6.40;3.40;;;13.70;56.40;;;;;;5008727;28;20112;-85
2023/04/05 15:47:24;;;;;;;5.90;4.10;;;13.60;57.30;;;;;;5017962;28;20026;-87
2023/04/05 15:49:50;;;;;;;6.70;4.00;;;13.60;56.90;;;;;;5009442;28;20030;-83
2023/04/05 15:52:16;;;;;;;7.18;3.90;;;13.40;56.90;;;;;;5011881;28;20033;-86
2023/04/05 15:54:43;;;;;;;6.55;3.47;;;13.40;58.80;;;;;;5014666;28;20386;-85
2023/04/05 15:57:09;;;;;;;5.85;3.20;;;13.50;57.90;;;;;;5016027;28;20037;-86
2023/04/05 15:59:35;;;;;;;5.25;3.47;;;13.50;56.60;;;;;;5016039;28;20377;-82
2023/04/05 16:02:01;;;;;;;5.07;3.35;;;13.50;56.10;;;;;;5012696;28;20053;-83
2023/04/05 16:04:28;;;;;;;6.03;3.30;;;13.50;56.50;;;;;;5020766;28;20029;-87
2023/04/05 16:06:54;;;;;;;4.93;3.30;;;13.40;56.30;;;;;;5019729;28;20057;-87
2023/04/05 16:09:20;;;;;;;6.13;3.38;;;13.40;56.80;;;;;;5018139;28;20034;-82
2023/04/05 16:11:46;;;;;;;6.70;3.42;;;13.40;56.40;;;;;;5021198;28;20049;-89
2023/04/05 16:14:12;;;;;;;6.68;3.95;;;13.20;56.50;;;;;;5018446;28;20074;-85
2023/04/05 16:16:38;;;;;;;6.28;4.00;;;13.30;57.60;;;;;;5020707;28;20018;-87
2023/04/05 16:19:04;;;;;;;6.82;4.07;;;13.20;58.30;;;;;;5023096;28;20439;-85
2023/04/05 16:21:29;;;;;;;8.27;4.72;;;13.00;58.40;;;;;;5023314;28;20053;-89
2023/04/05 16:23:56;;;;;;;6.07;3.65;;;12.80;58.60;;;;;;5018105;28;20022;-85
2023/04/05 16:26:22;;;;;;;6.65;3.55;;;12.80;58.80;;;;;;5016740;28;20081;-87
2023/04/05 16:28:48;;;;;;;7.78;3.72;;;12.70;58.70;;;;;;5029615;28;20026;-86
2023/04/05 16:31:13;;;;;;;5.22;3.08;;;12.70;58.50;;;;;;5014967;28;20077;-87
2023/04/05 16:33:39;;;;;;;5.45;3.33;;;12.70;59.00;;;;;;5023419;28;20025;-86
2023/04/05 16:36:05;;;;;;;8.40;3.40;;;12.70;58.20;;;;;;5020869;28;20061;-85
2023/04/05 16:38:31;;;;;;;6.70;3.40;;;12.70;58.70;;;;;;5022150;28;20494;-87
2023/04/05 16:40:56;;;;;;;5.78;3.63;;;12.70;58.30;;;;;;5018626;28;20022;-88
2023/04/05 16:43:24;;;;;;;7.60;3.60;;;12.60;58.40;;;;;;5022293;28;20029;-86
2023/04/05 16:46:00;;;;;;;7.75;4.05;;;12.60;58.40;;;;;;5026112;28;20018;-85
2023/04/05 16:48:31;;;;;;;8.23;4.10;;;12.60;59.00;;;;;;5023800;28;20021;-85
2023/04/05 16:50:57;;;;;;;7.05;4.57;;;12.60;59.20;;;;;;5019347;28;20054;-83
2023/04/05 16:53:25;;;;;;;7.72;4.40;;;12.40;59.20;;;;;;5022407;28;20018;-89
2023/04/05 16:55:54;;;;;;;12.57;7.30;;;12.30;59.60;;;;;;5020621;28;20090;-85
2023/04/05 16:58:20;;;;;;;7.53;4.38;;;12.30;59.70;;;;;;5024553;28;20030;-88
2023/04/05 17:00:45;;;;;;;10.82;6.95;;;12.30;59.30;;;;;;5016120;28;20041;-86
2023/04/05 17:03:11;;;;;;;10.00;5.70;;;12.20;60.00;;;;;;5022845;28;20033;-88
2023/04/05 17:05:37;;;;;;;9.38;4.40;;;12.10;60.20;;;;;;5017923;28;20026;-85
2023/04/05 17:08:03;;;;;;;6.03;3.58;;;12.20;59.40;;;;;;5018868;28;20037;-87
2023/04/05 17:10:28;;;;;;;5.45;3.58;;;12.10;59.50;;;;;;5017835;28;20061;-88
2023/04/05 17:13:00;;;;;;;5.40;3.50;;;12.10;59.10;;;;;;5012075;28;20057;-91
2023/04/05 17:15:26;;;;;;;7.43;4.00;;;12.00;59.10;;;;;;5019285;28;20030;-84
2023/04/05 17:17:52;;;;;;;10.77;6.38;;;11.90;59.60;;;;;;5002669;28;20393;-86
2023/04/05 17:20:18;;;;;;;9.27;4.88;;;11.90;60.20;;;;;;5017837;28;20036;-85
2023/04/05 17:22:44;;;;;;;9.45;5.10;;;11.90;60.70;;;;;;5010502;28;20026;-88
2023/04/05 17:25:10;;;;;;;9.30;4.32;;;11.90;61.20;;;;;;5013912;28;20030;-84
2023/04/05 17:27:35;;;;;;;5.95;4.05;;;11.90;60.80;;;;;;5015191;28;20410;-87
2023/04/05 17:30:01;;;;;;;6.93;3.70;;;11.80;60.80;;;;;;5020951;28;20031;-87
2023/04/05 17:32:28;;;;;;;7.88;4.40;;;11.80;60.80;;;;;;5012044;28;20028;-90
2023/04/05 17:34:53;;;;;;;7.13;4.40;;;11.80;60.70;;;;;;5014591;28;20026;-86
2023/04/05 17:37:19;;;;;;;7.72;4.47;;;11.70;61.00;;;;;;5019982;28;20042;-86
2023/04/05 17:39:47;;;;;;;7.55;4.50;;;11.60;61.40;;;;;;5017653;28;20078;-88
2023/04/05 17:42:17;;;;;;;6.85;4.07;;;11.60;61.90;;;;;;5020644;28;20030;-86
2023/04/05 17:44:43;;;;;;;7.70;4.25;;;11.50;62.10;;;;;;5019071;28;20036;-83
2023/04/05 17:47:09;;;;;;;7.43;4.30;;;11.50;62.20;;;;;;5023324;28;20098;-88
2023/04/05 17:49:37;;;;;;;7.50;4.07;;;11.40;62.70;;;;;;5025245;28;20083;-87
2023/04/05 17:52:07;;;;;;;6.97;4.22;;;11.40;62.40;;;;;;5015516;28;20026;-87
2023/04/05 17:54:35;;;;;;;8.40;4.32;;;11.30;62.50;;;;;;5038955;28;20030;-86
2023/04/05 17:57:04;;;;;;;9.13;4.53;;;11.30;62.80;;;;;;5021448;28;20034;-88
2023/04/05 17:59:30;;;;;;;7.75;4.88;;;11.30;62.90;;;;;;5023272;28;20030;-88
2023/04/05 18:01:59;;;;;;;8.23;4.88;;;11.20;63.10;;;;;;5018886;28;20103;-87
2023/04/05 18:04:25;;;;;;;10.90;4.78;;;11.10;63.20;;;;;;5012088;28;20057;-86
2023/04/05 18:06:51;;;;;;;7.93;5.10;;;11.10;63.80;;;;;;5014325;28;20041;-88
2023/04/05 18:09:19;;;;;;;7.22;4.18;;;11.10;63.90;;;;;;5002483;28;20034;-87
2023/04/05 18:11:45;;;;;;;8.10;4.18;;;11.10;64.10;;;;;;4995569;28;20050;-84
2023/04/05 18:14:10;;;;;;;8.43;4.45;;;11.10;64.00;;;;;;5011839;28;20049;-87
2023/04/05 18:16:36;;;;;;;8.23;4.45;;;11.00;63.60;;;;;;5009513;28;20037;-87
2023/04/05 18:19:02;;;;;;;8.45;4.38;;;11.00;64.00;;;;;;5017269;28;20067;-85
2023/04/05 18:21:28;;;;;;;11.93;6.88;;;11.00;63.60;;;;;;5017594;28;20048;-86
2023/04/05 18:23:53;;;;;;;6.38;4.65;;;11.00;64.00;;;;;;5014050;28;20022;-86
2023/04/05 18:26:19;;;;;;;10.55;4.63;;;10.90;63.90;;;;;;5011720;28;20153;-87
2023/04/05 18:28:45;;;;;;;8.98;5.57;;;10.90;64.00;;;;;;5009416;28;20049;-88
2023/04/05 18:31:11;;;;;;;9.45;4.78;;;10.80;64.00;;;;;;5003510;28;20497;-86
2023/04/05 18:33:38;;;;;;;8.43;5.07;;;10.80;64.40;;;;;;5008072;28;20022;-86
2023/04/05 18:36:06;;;;;;;8.27;4.45;;;10.70;64.50;;;;;;5013489;28;20540;-84
2023/04/05 18:38:32;;;;;;;9.40;4.82;;;10.70;64.60;;;;;;5004782;28;22189;-86
2023/04/05 18:41:02;;;;;;;11.82;6.38;;;10.70;64.70;;;;;;5001422;28;20121;-84
2023/04/05 18:43:29;;;;;;;9.60;4.97;;;10.60;64.30;;;;;;5003109;28;20038;-87
2023/04/05 18:45:55;;;;;;;7.22;3.97;;;10.60;64.60;;;;;;5012793;28;20068;-87
2023/04/05 18:48:24;;;;;;;9.02;4.13;;;10.50;65.30;;;;;;5009803;28;21642;-87
2023/04/05 18:50:56;;;;;;;7.57;4.20;;;10.50;65.60;;;;;;5005041;28;20049;-85
2023/04/05 18:53:22;;;;;;;5.95;4.22;;;10.50;66.00;;;;;;5007925;28;20030;-84
2023/04/05 18:55:51;;;;;;;7.88;4.20;;;10.40;65.80;;;;;;5009724;28;20030;-84
2023/04/05 18:58:17;;;;;;;6.18;4.22;;;10.30;65.90;;;;;;5011190;28;20029;-84
2023/04/05 19:00:42;;;;;;;7.20;4.65;;;10.30;65.50;;;;;;5007210;28;20045;-83
2023/04/05 19:03:08;;;;;;;6.10;4.13;;;10.20;65.70;;;;;;5010752;28;20484;-82
2023/04/05 19:05:34;;;;;;;7.07;4.30;;;10.20;65.90;;;;;;5011717;28;20033;-85
2023/04/05 19:08:00;;;;;;;8.25;4.30;;;10.10;66.00;;;;;;5006992;28;20077;-86
2023/04/05 19:10:26;;;;;;;7.45;4.28;;;10.10;66.30;;;;;;5006625;28;20017;-86
2023/04/05 19:12:54;;;;;;;6.45;4.35;;;10.00;66.40;;;;;;5007659;28;20042;-86
2023/04/05 19:15:20;;;;;;;6.80;4.22;;;10.00;66.40;;;;;;5010996;28;20033;-86
2023/04/05 19:17:46;;;;;;;7.88;4.05;;;10.00;66.30;;;;;;5011064;28;20112;-86
2023/04/05 19:20:11;;;;;;;6.50;4.15;;;9.90;66.40;;;;;;5006982;28;20045;-83
2023/04/05 19:22:37;;;;;;;6.35;4.18;;;9.90;66.50;;;;;;5014362;28;20026;-82
2023/04/05 19:25:03;;;;;;;7.93;4.35;;;9.40;66.70;;;;;;5009276;28;20049;-86
2023/04/05 19:27:31;;;;;;;7.28;4.43;;;9.80;66.90;;;;;;5003203;28;20076;-86
2023/04/05 19:29:57;;;;;;;7.90;4.88;;;9.80;67.00;;;;;;5006124;28;20559;-82
2023/04/05 19:32:23;;;;;;;7.53;4.97;;;9.80;67.30;;;;;;5009051;28;20022;-84